createdAt,value
2023-01-29T00:00:12.722Z,-1.34
2023-01-29T00:01:12.629Z,-1.34
2023-01-29T00:02:13.189Z,-1.35
2023-01-29T00:03:12.669Z,-1.38
2023-01-29T00:04:12.616Z,-1.41
2023-01-29T00:05:27.073Z,-1.48
2023-01-29T00:06:13.627Z,-1.48
2023-01-29T00:07:13.367Z,-1.51
2023-01-29T00:08:12.550Z,-1.51
2023-01-29T00:09:12.539Z,-1.51
2023-01-29T00:10:12.556Z,-1.48
2023-01-29T00:11:12.560Z,-1.43
2023-01-29T00:12:12.518Z,-1.40
2023-01-29T00:13:12.486Z,-1.40
2023-01-29T00:14:12.488Z,-1.37
2023-01-29T00:15:12.496Z,-1.37
2023-01-29T00:16:12.478Z,-1.37
2023-01-29T00:17:12.498Z,-1.38
2023-01-29T00:18:12.450Z,-1.40
2023-01-29T00:19:12.436Z,-1.38
2023-01-29T00:20:12.471Z,-1.34
2023-01-29T00:21:12.418Z,-1.34
2023-01-29T00:22:13.214Z,-1.31
2023-01-29T00:23:12.401Z,-1.33
2023-01-29T00:24:12.471Z,-1.33
2023-01-29T00:25:12.373Z,-1.34
2023-01-29T00:26:12.384Z,-1.31
2023-01-29T00:27:12.352Z,-1.30
2023-01-29T00:28:12.381Z,-1.31
2023-01-29T00:29:12.339Z,-1.31
2023-01-29T00:30:12.337Z,-1.31
2023-01-29T00:31:12.404Z,-1.33
2023-01-29T00:32:12.461Z,-1.34
2023-01-29T00:33:12.293Z,-1.33
2023-01-29T00:34:12.305Z,-1.33
2023-01-29T00:35:12.316Z,-1.37
2023-01-29T00:36:12.273Z,-1.40
2023-01-29T00:37:12.263Z,-1.37
2023-01-29T00:38:12.304Z,-1.34
2023-01-29T00:39:12.222Z,-1.31
2023-01-29T00:40:12.232Z,-1.33
2023-01-29T00:41:12.213Z,-1.34
2023-01-29T00:42:12.207Z,-1.31
2023-01-29T00:43:12.192Z,-1.31
2023-01-29T00:44:12.200Z,-1.28
2023-01-29T00:45:12.164Z,-1.28
2023-01-29T00:46:12.198Z,-1.25
2023-01-29T00:47:12.153Z,-1.25
2023-01-29T00:48:12.145Z,-1.27
2023-01-29T00:49:12.123Z,-1.28
2023-01-29T00:50:12.131Z,-1.31
2023-01-29T00:51:12.104Z,-1.34
2023-01-29T00:52:12.132Z,-1.40
2023-01-29T00:53:12.115Z,-1.45
2023-01-29T00:54:12.084Z,-1.49
2023-01-29T00:55:12.090Z,-1.51
2023-01-29T00:56:12.054Z,-1.48
2023-01-29T00:57:12.048Z,-1.51
2023-01-29T00:58:12.041Z,-1.54
2023-01-29T00:59:12.031Z,-1.58
2023-01-29T01:00:12.045Z,-1.61
2023-01-29T01:01:12.086Z,-1.64
2023-01-29T01:02:12.083Z,-1.70
2023-01-29T01:03:11.989Z,-1.73
2023-01-29T01:04:11.986Z,-1.76
2023-01-29T01:05:11.958Z,-1.79
2023-01-29T01:06:12.737Z,-1.82
2023-01-29T01:07:17.133Z,-1.88
2023-01-29T01:08:11.940Z,-1.92
2023-01-29T01:09:11.919Z,-1.94
2023-01-29T01:10:11.917Z,-1.97
2023-01-29T01:11:11.906Z,-2.02
2023-01-29T01:12:11.886Z,-2.06
2023-01-29T01:13:11.884Z,-2.09
2023-01-29T01:14:11.891Z,-2.15
2023-01-29T01:15:12.064Z,-2.16
2023-01-29T01:16:11.884Z,-2.21
2023-01-29T01:17:11.847Z,-2.23
2023-01-29T01:18:11.836Z,-2.26
2023-01-29T01:19:11.911Z,-2.27
2023-01-29T01:20:11.798Z,-2.29
2023-01-29T01:21:12.344Z,-2.35
2023-01-29T01:22:11.809Z,-2.32
2023-01-29T01:23:11.779Z,-2.34
2023-01-29T01:24:11.820Z,-2.34
2023-01-29T01:25:11.769Z,-2.32
2023-01-29T01:26:11.764Z,-2.24
2023-01-29T01:27:11.749Z,-2.18
2023-01-29T01:28:11.737Z,-2.15
2023-01-29T01:29:11.718Z,-2.10
2023-01-29T01:30:11.711Z,-2.06
2023-01-29T01:31:11.812Z,-2.06
2023-01-29T01:32:11.681Z,-2.05
2023-01-29T01:33:11.709Z,-2.03
2023-01-29T01:34:11.675Z,-1.98
2023-01-29T01:35:11.711Z,-1.92
2023-01-29T01:36:11.637Z,-1.90
2023-01-29T01:37:11.686Z,-1.84
2023-01-29T01:38:12.449Z,-1.82
2023-01-29T01:39:11.620Z,-1.80
2023-01-29T01:40:11.610Z,-1.72
2023-01-29T01:41:11.603Z,-1.69
2023-01-29T01:42:11.680Z,-1.62
2023-01-29T01:43:11.849Z,-1.59
2023-01-29T01:44:11.576Z,-1.51
2023-01-29T01:45:11.560Z,-1.46
2023-01-29T01:46:11.589Z,-1.45
2023-01-29T01:47:11.541Z,-1.40
2023-01-29T01:48:11.537Z,-1.37
2023-01-29T01:49:11.514Z,-1.35
2023-01-29T01:50:11.513Z,-1.33
2023-01-29T01:51:11.492Z,-1.31
2023-01-29T01:52:11.504Z,-1.27
2023-01-29T01:53:11.472Z,-1.27
2023-01-29T01:54:11.493Z,-1.23
2023-01-29T01:55:11.457Z,-1.17
2023-01-29T01:56:11.454Z,-1.15
2023-01-29T01:57:11.435Z,-1.13
2023-01-29T01:58:11.430Z,-1.04
2023-01-29T01:59:11.437Z,-0.95
2023-01-29T02:00:11.432Z,-0.89
2023-01-29T02:01:11.435Z,-0.82
2023-01-29T02:02:11.469Z,-0.76
2023-01-29T02:03:11.375Z,-0.75
2023-01-29T02:04:11.363Z,-0.76
2023-01-29T02:05:11.343Z,-0.75
2023-01-29T02:06:11.397Z,-0.72
2023-01-29T02:07:11.319Z,-0.69
2023-01-29T02:08:11.334Z,-0.64
2023-01-29T02:09:11.315Z,-0.64
2023-01-29T02:10:11.304Z,-0.62
2023-01-29T02:11:11.285Z,-0.61
2023-01-29T02:12:11.303Z,-0.61
2023-01-29T02:13:11.277Z,-0.60
2023-01-29T02:14:11.267Z,-0.58
2023-01-29T02:15:11.633Z,-0.54
2023-01-29T02:16:11.273Z,-0.49
2023-01-29T02:17:11.308Z,-0.49
2023-01-29T02:18:11.230Z,-0.51
2023-01-29T02:19:11.205Z,-0.52
2023-01-29T02:20:11.194Z,-0.49
2023-01-29T02:21:11.175Z,-0.43
2023-01-29T02:22:11.191Z,-0.40
2023-01-29T02:23:11.162Z,-0.37
2023-01-29T02:24:11.312Z,-0.34
2023-01-29T02:25:11.162Z,-0.31
2023-01-29T02:26:11.127Z,-0.26
2023-01-29T02:27:11.156Z,-0.25
2023-01-29T02:28:11.146Z,-0.25
2023-01-29T02:29:11.127Z,-0.25
2023-01-29T02:30:11.094Z,-0.28
2023-01-29T02:31:11.101Z,-0.28
2023-01-29T02:32:11.137Z,-0.29
2023-01-29T02:33:11.128Z,-0.33
2023-01-29T02:34:11.057Z,-0.31
2023-01-29T02:35:11.062Z,-0.31
2023-01-29T02:36:11.037Z,-0.31
2023-01-29T02:37:11.034Z,-0.33
2023-01-29T02:38:11.015Z,-0.34
2023-01-29T02:39:11.027Z,-0.33
2023-01-29T02:40:11.007Z,-0.29
2023-01-29T02:41:11.001Z,-0.28
2023-01-29T02:42:10.970Z,-0.29
2023-01-29T02:43:10.965Z,-0.31
2023-01-29T02:44:10.970Z,-0.34
2023-01-29T03:12:38.542Z,-0.60
2023-01-29T03:13:36.713Z,-0.64
2023-01-29T03:14:36.695Z,-0.61
2023-01-29T03:15:36.686Z,-0.60
2023-01-29T03:16:36.795Z,-0.60
2023-01-29T03:17:37.391Z,-0.60
2023-01-29T03:18:36.668Z,-0.61
2023-01-29T03:19:36.668Z,-0.61
2023-01-29T03:20:36.643Z,-0.62
2023-01-29T03:21:36.646Z,-0.65
2023-01-29T03:22:36.618Z,-0.67
2023-01-29T03:23:36.621Z,-0.65
2023-01-29T03:24:36.599Z,-0.69
2023-01-29T03:25:37.107Z,-0.70
2023-01-29T03:26:36.628Z,-0.70
2023-01-29T03:27:36.569Z,-0.70
2023-01-29T03:28:36.583Z,-0.73
2023-01-29T03:29:36.554Z,-0.73
2023-01-29T03:30:36.542Z,-0.75
2023-01-29T03:31:36.620Z,-0.75
2023-01-29T03:32:36.523Z,-0.75
2023-01-29T03:33:36.538Z,-0.75
2023-01-29T03:34:36.487Z,-0.76
2023-01-29T03:35:37.325Z,-0.75
2023-01-29T03:36:36.475Z,-0.76
2023-01-29T03:37:36.488Z,-0.76
2023-01-29T03:38:36.470Z,-0.73
2023-01-29T03:39:36.460Z,-0.73
2023-01-29T03:40:36.450Z,-0.70
2023-01-29T03:41:36.430Z,-0.69
2023-01-29T03:42:36.412Z,-0.67
2023-01-29T03:43:36.413Z,-0.64
2023-01-29T03:44:36.390Z,-0.64
2023-01-29T03:45:36.514Z,-0.62
2023-01-29T03:46:36.388Z,-0.60
2023-01-29T03:47:36.370Z,-0.58
2023-01-29T03:48:36.363Z,-0.55
2023-01-29T03:49:36.360Z,-0.55
2023-01-29T03:50:36.439Z,-0.57
2023-01-29T03:51:36.341Z,-0.52
2023-01-29T03:52:36.348Z,-0.54
2023-01-29T03:53:36.316Z,-0.54
2023-01-29T03:54:36.288Z,-0.54
2023-01-29T03:55:36.313Z,-0.54
2023-01-29T03:56:36.291Z,-0.52
2023-01-29T03:57:36.279Z,-0.54
2023-01-29T03:58:36.278Z,-0.55
2023-01-29T03:59:36.244Z,-0.57
2023-01-29T04:00:36.274Z,-0.57
2023-01-29T04:01:36.258Z,-0.57
2023-01-29T04:02:36.217Z,-0.58
2023-01-29T04:03:36.213Z,-0.60
2023-01-29T04:04:36.210Z,-0.60
2023-01-29T04:05:36.201Z,-0.62
2023-01-29T04:06:36.167Z,-0.67
2023-01-29T04:07:36.173Z,-0.65
2023-01-29T04:08:36.155Z,-0.69
2023-01-29T04:09:36.156Z,-0.73
2023-01-29T04:10:36.191Z,-0.78
2023-01-29T04:11:36.127Z,-0.79
2023-01-29T04:12:36.119Z,-0.83
2023-01-29T04:13:36.118Z,-0.86
2023-01-29T04:14:36.104Z,-0.94
2023-01-29T04:15:36.093Z,-0.92
2023-01-29T04:16:36.098Z,-0.97
2023-01-29T04:17:36.074Z,-1.01
2023-01-29T04:18:36.066Z,-1.05
2023-01-29T04:19:36.086Z,-1.12
2023-01-29T04:20:36.055Z,-1.10
2023-01-29T04:21:36.027Z,-1.13
2023-01-29T04:22:36.005Z,-1.17
2023-01-29T04:23:36.027Z,-1.20
2023-01-29T04:24:35.995Z,-1.27
2023-01-29T04:25:36.092Z,-1.33
2023-01-29T04:26:35.968Z,-1.40
2023-01-29T04:27:35.998Z,-1.46
2023-01-29T04:28:35.968Z,-1.48
2023-01-29T04:29:35.963Z,-1.55
2023-01-29T04:30:35.997Z,-1.55
2023-01-29T04:31:36.140Z,-1.59
2023-01-29T04:32:35.921Z,-1.59
2023-01-29T04:33:35.939Z,-1.69
2023-01-29T04:34:35.902Z,-1.74
2023-01-29T04:35:35.901Z,-1.80
2023-01-29T04:36:35.878Z,-1.88
2023-01-29T04:37:35.874Z,-1.95
2023-01-29T04:38:35.866Z,-2.00
2023-01-29T04:39:36.004Z,-2.05
2023-01-29T04:40:35.849Z,-2.09
2023-01-29T04:41:35.841Z,-2.15
2023-01-29T04:42:35.814Z,-2.23
2023-01-29T04:43:35.822Z,-2.26
2023-01-29T04:44:35.791Z,-2.32
2023-01-29T04:45:35.809Z,-2.37
2023-01-29T04:46:35.940Z,-2.42
2023-01-29T04:47:35.828Z,-2.48
2023-01-29T04:48:35.754Z,-2.53
2023-01-29T04:49:35.750Z,-2.58
2023-01-29T04:50:35.732Z,-2.66
2023-01-29T04:51:35.831Z,-2.70
2023-01-29T04:52:35.720Z,-2.77
2023-01-29T04:53:35.730Z,-2.84
2023-01-29T04:54:35.700Z,-2.85
2023-01-29T04:55:35.690Z,-2.85
2023-01-29T04:56:36.358Z,-2.91
2023-01-29T04:57:35.685Z,-2.92
2023-01-29T04:58:35.644Z,-2.99
2023-01-29T04:59:35.660Z,-3.00
2023-01-29T05:00:35.632Z,-3.03
2023-01-29T05:01:35.738Z,-3.05
2023-01-29T05:02:35.635Z,-3.09
2023-01-29T05:03:35.603Z,-3.12
2023-01-29T05:04:35.592Z,-3.17
2023-01-29T05:05:35.589Z,-3.14
2023-01-29T05:06:35.554Z,-3.09
2023-01-29T05:07:35.568Z,-3.05
2023-01-29T05:08:35.549Z,-3.00
2023-01-29T05:09:35.537Z,-3.02
2023-01-29T05:10:35.524Z,-2.94
2023-01-29T05:11:35.514Z,-2.94
2023-01-29T05:12:35.495Z,-2.97
2023-01-29T05:13:35.502Z,-2.99
2023-01-29T05:14:35.496Z,-3.02
2023-01-29T05:15:35.482Z,-3.03
2023-01-29T05:16:35.468Z,-3.05
2023-01-29T05:17:35.471Z,-3.07
2023-01-29T05:18:35.441Z,-3.14
2023-01-29T05:19:35.525Z,-3.20
2023-01-29T05:20:35.521Z,-3.24
2023-01-29T05:21:35.416Z,-3.28
2023-01-29T05:22:35.404Z,-3.33
2023-01-29T05:23:35.423Z,-3.33
2023-01-29T05:24:35.386Z,-3.35
2023-01-29T05:25:35.377Z,-3.36
2023-01-29T05:26:35.402Z,-3.36
2023-01-29T05:27:35.365Z,-3.38
2023-01-29T05:28:35.336Z,-3.38
2023-01-29T05:29:35.385Z,-3.36
2023-01-29T05:30:36.122Z,-3.35
2023-01-29T05:31:35.358Z,-3.35
2023-01-29T05:32:35.323Z,-3.39
2023-01-29T05:33:35.312Z,-3.39
2023-01-29T05:34:35.368Z,-3.42
2023-01-29T05:35:35.279Z,-3.41
2023-01-29T05:36:35.280Z,-3.41
2023-01-29T05:37:35.289Z,-3.42
2023-01-29T05:38:35.268Z,-3.43
2023-01-29T05:39:35.236Z,-3.52
2023-01-29T05:40:35.218Z,-3.54
2023-01-29T05:41:35.236Z,-3.52
2023-01-29T05:42:35.201Z,-3.48
2023-01-29T05:43:35.229Z,-3.41
2023-01-29T05:44:35.176Z,-3.41
2023-01-29T05:45:35.183Z,-3.43
2023-01-29T05:46:35.206Z,-3.49
2023-01-29T05:47:35.360Z,-3.46
2023-01-29T05:48:35.146Z,-3.49
2023-01-29T05:49:38.638Z,-3.56
2023-01-29T05:50:35.179Z,-3.54
2023-01-29T05:51:35.133Z,-3.59
2023-01-29T05:52:35.139Z,-3.60
2023-01-29T05:53:35.328Z,-3.62
2023-01-29T05:54:35.128Z,-3.57
2023-01-29T05:55:35.366Z,-3.60
2023-01-29T05:56:35.863Z,-3.64
2023-01-29T05:57:35.566Z,-3.66
2023-01-29T05:58:35.053Z,-3.62
2023-01-29T05:59:35.045Z,-3.52
2023-01-29T06:00:35.193Z,-3.52
2023-01-29T06:01:35.923Z,-3.48
2023-01-29T06:02:35.042Z,-3.52
2023-01-29T06:03:35.002Z,-3.53
2023-01-29T06:04:34.978Z,-3.54
2023-01-29T06:05:35.011Z,-3.54
2023-01-29T06:06:35.018Z,-3.59
2023-01-29T06:07:34.978Z,-3.60
2023-01-29T06:08:35.006Z,-3.62
2023-01-29T06:09:34.932Z,-3.63
2023-01-29T06:10:34.982Z,-3.62
2023-01-29T06:11:34.919Z,-3.57
2023-01-29T06:12:35.004Z,-3.52
2023-01-29T06:13:34.962Z,-3.48
2023-01-29T06:14:34.959Z,-3.43
2023-01-29T06:15:34.895Z,-3.39
2023-01-29T06:16:34.954Z,-3.35
2023-01-29T06:17:34.911Z,-3.31
2023-01-29T06:18:35.869Z,-3.28
2023-01-29T06:19:35.044Z,-3.31
2023-01-29T06:20:34.870Z,-3.28
2023-01-29T06:21:34.857Z,-3.24
2023-01-29T06:22:34.818Z,-3.21
2023-01-29T06:23:34.809Z,-3.15
2023-01-29T06:24:34.816Z,-3.10
2023-01-29T06:25:34.851Z,-3.06
2023-01-29T06:26:34.790Z,-3.07
2023-01-29T06:27:34.762Z,-3.03
2023-01-29T06:28:35.540Z,-3.05
2023-01-29T06:29:34.750Z,-3.00
2023-01-29T06:30:34.827Z,-3.00
2023-01-29T06:31:39.540Z,-2.97
2023-01-29T06:32:34.771Z,-2.91
2023-01-29T06:33:34.692Z,-2.88
2023-01-29T06:34:34.682Z,-2.84
2023-01-29T06:35:34.713Z,-2.84
2023-01-29T06:36:34.751Z,-2.81
2023-01-29T06:37:34.686Z,-2.79
2023-01-29T06:38:34.661Z,-2.77
2023-01-29T06:39:34.646Z,-2.74
2023-01-29T06:40:34.683Z,-2.73
2023-01-29T06:41:35.421Z,-2.70
2023-01-29T06:42:34.650Z,-2.67
2023-01-29T06:43:35.339Z,-2.66
2023-01-29T06:44:34.579Z,-2.66
2023-01-29T06:45:34.895Z,-2.64
2023-01-29T06:46:34.588Z,-2.61
2023-01-29T06:47:34.565Z,-2.61
2023-01-29T06:48:34.607Z,-2.58
2023-01-29T06:49:34.549Z,-2.60
2023-01-29T06:50:35.325Z,-2.50
2023-01-29T06:51:35.481Z,-2.49
2023-01-29T06:52:34.513Z,-2.46
2023-01-29T06:53:34.517Z,-2.46
2023-01-29T06:54:34.536Z,-2.45
2023-01-29T06:55:34.845Z,-2.45
2023-01-29T06:56:34.471Z,-2.42
2023-01-29T06:57:34.467Z,-2.40
2023-01-29T06:58:34.447Z,-2.39
2023-01-29T06:59:34.449Z,-2.35
2023-01-29T07:00:34.484Z,-2.30
2023-01-29T07:01:36.444Z,-2.26
2023-01-29T07:02:34.413Z,-2.23
2023-01-29T07:03:34.437Z,-2.20
2023-01-29T07:04:34.410Z,-2.15
2023-01-29T07:05:34.389Z,-2.15
2023-01-29T07:06:34.402Z,-2.03
2023-01-29T07:07:34.647Z,-2.02
2023-01-29T07:08:34.327Z,-2.00
2023-01-29T07:09:34.326Z,-1.97
2023-01-29T07:10:34.370Z,-1.94
2023-01-29T07:11:34.394Z,-1.92
2023-01-29T07:12:34.493Z,-1.92
2023-01-29T07:13:34.312Z,-1.88
2023-01-29T07:14:34.285Z,-1.82
2023-01-29T07:15:36.364Z,-1.80
2023-01-29T07:16:34.367Z,-1.76
2023-01-29T07:17:34.259Z,-1.73
2023-01-29T07:18:34.922Z,-1.69
2023-01-29T07:19:35.153Z,-1.69
2023-01-29T07:20:34.324Z,-1.69
2023-01-29T07:21:35.221Z,-1.66
2023-01-29T07:22:34.502Z,-1.69
2023-01-29T07:23:34.251Z,-1.66
2023-01-29T07:24:34.291Z,-1.64
2023-01-29T07:25:34.195Z,-1.61
2023-01-29T07:26:34.251Z,-1.56
2023-01-29T07:27:34.223Z,-1.54
2023-01-29T07:28:34.188Z,-1.52
2023-01-29T07:29:34.169Z,-1.49
2023-01-29T07:30:34.217Z,-1.51
2023-01-29T07:31:34.336Z,-1.48
2023-01-29T07:32:35.593Z,-1.46
2023-01-29T07:33:34.062Z,-1.43
2023-01-29T07:34:34.092Z,-1.45
2023-01-29T07:35:34.159Z,-1.43
2023-01-29T07:36:34.587Z,-1.40
2023-01-29T07:37:34.144Z,-1.35
2023-01-29T07:38:34.240Z,-1.33
2023-01-29T07:39:34.074Z,-1.30
2023-01-29T07:40:34.084Z,-1.27
2023-01-29T07:41:34.036Z,-1.23
2023-01-29T07:42:33.995Z,-1.22
2023-01-29T07:43:33.988Z,-1.20
2023-01-29T07:44:33.970Z,-1.19
2023-01-29T07:45:34.015Z,-1.16
2023-01-29T07:46:33.952Z,-1.12
2023-01-29T07:47:34.016Z,-1.10
2023-01-29T07:48:33.924Z,-1.07
2023-01-29T07:49:33.919Z,-1.02
2023-01-29T07:50:34.051Z,-1.01
2023-01-29T07:51:33.889Z,-0.95
2023-01-29T07:52:33.882Z,-0.92
2023-01-29T07:53:33.881Z,-0.86
2023-01-29T07:54:33.858Z,-0.82
2023-01-29T07:55:34.595Z,-0.79
2023-01-29T07:56:33.846Z,-0.79
2023-01-29T07:57:33.896Z,-0.72
2023-01-29T07:58:35.735Z,-0.69
2023-01-29T07:59:34.048Z,-0.64
2023-01-29T08:00:34.396Z,-0.57
2023-01-29T08:01:33.803Z,-0.51
2023-01-29T08:02:33.808Z,-0.46
2023-01-29T08:03:33.765Z,-0.39
2023-01-29T08:04:33.796Z,-0.36
2023-01-29T08:05:33.794Z,-0.25
2023-01-29T08:06:33.745Z,-0.19
2023-01-29T08:07:33.727Z,-0.19
2023-01-29T08:08:34.535Z,-0.21
2023-01-29T08:09:33.708Z,-0.18
2023-01-29T08:10:33.806Z,-0.10
2023-01-29T08:11:33.681Z,-0.04
2023-01-29T08:12:33.708Z,-0.03
2023-01-29T08:13:33.820Z,0.11
2023-01-29T08:14:33.657Z,0.26
2023-01-29T08:15:33.659Z,0.38
2023-01-29T08:16:33.723Z,0.51
2023-01-29T08:17:33.625Z,0.70
2023-01-29T08:18:33.644Z,0.80
2023-01-29T08:19:33.619Z,0.86
2023-01-29T08:20:33.607Z,0.94
2023-01-29T08:21:33.591Z,0.93
2023-01-29T08:22:33.595Z,1.04
2023-01-29T08:23:33.558Z,1.11
2023-01-29T08:24:47.553Z,1.14
2023-01-29T08:25:34.637Z,1.04
2023-01-29T08:26:33.653Z,0.97
2023-01-29T08:27:33.519Z,1.02
2023-01-29T08:28:33.554Z,1.05
2023-01-29T08:29:33.517Z,1.12
2023-01-29T08:30:33.523Z,1.09
2023-01-29T08:31:33.595Z,1.15
2023-01-29T08:32:33.470Z,1.20
2023-01-29T08:33:38.989Z,1.30
2023-01-29T08:34:34.457Z,1.40
2023-01-29T08:35:33.453Z,1.52
2023-01-29T08:36:33.430Z,1.59
2023-01-29T08:37:33.412Z,1.48
2023-01-29T08:38:33.413Z,1.59
2023-01-29T08:39:34.470Z,1.70
2023-01-29T08:40:33.840Z,1.86
2023-01-29T08:41:33.364Z,1.93
2023-01-29T08:42:33.375Z,1.86
2023-01-29T08:43:33.359Z,1.81
2023-01-29T08:44:34.154Z,1.81
2023-01-29T08:45:33.321Z,1.84
2023-01-29T08:46:33.323Z,1.91
2023-01-29T08:47:33.294Z,2.03
2023-01-29T08:48:33.384Z,2.10
2023-01-29T08:49:33.304Z,2.07
2023-01-29T08:50:33.284Z,2.17
2023-01-29T08:51:33.290Z,2.21
2023-01-29T08:52:33.273Z,2.14
2023-01-29T08:53:33.300Z,2.16
2023-01-29T08:54:33.234Z,2.10
2023-01-29T08:55:33.221Z,2.06
2023-01-29T08:56:33.270Z,2.06
2023-01-29T08:57:33.194Z,2.07
2023-01-29T08:58:33.573Z,2.14
2023-01-29T08:59:33.176Z,2.09
2023-01-29T09:00:33.265Z,2.20
2023-01-29T09:01:33.216Z,2.25
2023-01-29T09:02:33.302Z,2.31
2023-01-29T09:03:33.142Z,2.36
2023-01-29T09:04:33.126Z,2.41
2023-01-29T09:05:33.119Z,2.38
2023-01-29T09:06:33.117Z,2.24
2023-01-29T09:07:33.116Z,2.20
2023-01-29T09:08:33.097Z,2.23
2023-01-29T09:09:33.070Z,2.21
2023-01-29T09:10:33.072Z,2.17
2023-01-29T09:11:33.058Z,2.14
2023-01-29T09:12:33.047Z,2.17
2023-01-29T09:13:33.036Z,2.17
2023-01-29T09:14:33.036Z,2.18
2023-01-29T09:15:33.011Z,2.14
2023-01-29T09:16:33.078Z,2.09
2023-01-29T09:17:32.989Z,2.12
2023-01-29T09:18:32.989Z,2.21
2023-01-29T09:19:32.977Z,2.21
2023-01-29T09:20:32.971Z,2.31
2023-01-29T09:21:32.949Z,2.42
2023-01-29T09:22:32.941Z,2.39
2023-01-29T09:23:32.931Z,2.46
2023-01-29T09:24:33.127Z,2.52
2023-01-29T09:25:32.980Z,2.60
2023-01-29T09:26:32.910Z,2.61
2023-01-29T09:27:32.890Z,2.54
2023-01-29T09:28:32.887Z,2.48
2023-01-29T09:29:35.628Z,2.56
2023-01-29T09:30:32.893Z,2.57
2023-01-29T09:31:32.985Z,2.64
2023-01-29T09:33:33.825Z,2.64
2023-01-29T09:34:32.833Z,2.59
2023-01-29T09:35:32.812Z,2.56
2023-01-29T09:36:32.815Z,2.53
2023-01-29T09:37:32.783Z,2.27
2023-01-29T09:38:32.791Z,2.17
2023-01-29T09:39:32.893Z,2.16
2023-01-29T09:40:33.445Z,2.21
2023-01-29T09:41:32.774Z,2.31
2023-01-29T09:42:34.343Z,2.35
2023-01-29T09:43:32.729Z,2.45
2023-01-29T09:44:32.733Z,2.78
2023-01-29T09:45:32.917Z,3.14
2023-01-29T09:46:32.697Z,3.24
2023-01-29T09:47:32.701Z,3.29
2023-01-29T09:48:32.694Z,3.33
2023-01-29T09:49:32.655Z,3.36
2023-01-29T09:50:32.666Z,3.15
2023-01-29T09:51:32.635Z,3.20
2023-01-29T09:52:32.636Z,3.31
2023-01-29T09:53:32.644Z,3.31
2023-01-29T09:54:32.606Z,2.97
2023-01-29T09:55:32.643Z,2.93
2023-01-29T09:56:32.637Z,2.72
2023-01-29T09:57:32.588Z,2.48
2023-01-29T09:58:32.574Z,2.39
2023-01-29T09:59:32.555Z,2.30
2023-01-29T10:00:32.550Z,2.38
2023-01-29T10:01:32.657Z,2.57
2023-01-29T10:02:32.570Z,2.67
2023-01-29T10:03:32.519Z,2.89
2023-01-29T10:04:32.538Z,2.97
2023-01-29T10:05:32.490Z,3.02
2023-01-29T10:06:32.499Z,3.13
2023-01-29T10:07:32.467Z,3.20
2023-01-29T10:08:32.468Z,3.36
2023-01-29T10:09:32.455Z,3.45
2023-01-29T10:10:32.450Z,3.26
2023-01-29T10:11:32.439Z,3.36
2023-01-29T10:12:32.438Z,3.31
2023-01-29T10:13:32.657Z,3.42
2023-01-29T10:14:32.423Z,3.50
2023-01-29T10:15:32.398Z,3.52
2023-01-29T10:16:32.497Z,3.57
2023-01-29T10:17:32.362Z,3.66
2023-01-29T10:18:32.352Z,3.84
2023-01-29T10:19:32.347Z,3.90
2023-01-29T10:20:32.341Z,3.96
2023-01-29T10:21:32.331Z,3.79
2023-01-29T10:22:32.316Z,3.60
2023-01-29T10:23:34.381Z,3.55
2023-01-29T10:24:32.314Z,3.58
2023-01-29T10:25:32.283Z,3.88
2023-01-29T10:26:32.331Z,4.34
2023-01-29T10:27:32.271Z,4.48
2023-01-29T10:28:32.252Z,4.24
2023-01-29T10:29:32.400Z,4.12
2023-01-29T10:30:32.237Z,4.15
2023-01-29T10:31:32.308Z,4.16
2023-01-29T10:32:32.212Z,4.30
2023-01-29T10:33:48.731Z,4.02
2023-01-29T10:34:33.194Z,3.75
2023-01-29T10:35:32.164Z,3.73
2023-01-29T10:36:32.180Z,3.58
2023-01-29T10:37:32.157Z,3.69
2023-01-29T10:38:32.150Z,3.88
2023-01-29T10:39:32.129Z,4.15
2023-01-29T10:40:32.115Z,4.16
2023-01-29T10:41:32.249Z,4.37
2023-01-29T10:42:32.108Z,4.44
2023-01-29T10:43:32.097Z,4.37
2023-01-29T10:44:32.105Z,4.11
2023-01-29T10:45:32.080Z,4.08
2023-01-29T10:46:32.048Z,4.00
2023-01-29T10:47:32.141Z,4.02
2023-01-29T10:48:32.045Z,4.14
2023-01-29T10:49:32.028Z,4.11
2023-01-29T10:50:32.022Z,3.83
2023-01-29T10:51:32.047Z,3.62
2023-01-29T10:52:32.001Z,3.52
2023-01-29T10:53:31.998Z,3.47
2023-01-29T10:54:31.962Z,3.32
2023-01-29T10:55:31.980Z,3.33
2023-01-29T10:56:32.762Z,3.51
2023-01-29T10:57:32.767Z,3.57
2023-01-29T10:58:31.951Z,3.52
2023-01-29T10:59:31.940Z,3.62
2023-01-29T11:00:31.916Z,3.68
2023-01-29T11:01:32.793Z,3.36
2023-01-29T11:02:31.910Z,3.13
2023-01-29T11:03:31.957Z,3.18
2023-01-29T11:04:31.863Z,3.33
2023-01-29T11:05:32.742Z,3.47
2023-01-29T11:06:31.937Z,3.39
2023-01-29T11:07:31.843Z,3.40
2023-01-29T11:08:31.835Z,3.43
2023-01-29T11:10:31.802Z,3.47
2023-01-29T11:11:31.803Z,3.43
2023-01-29T11:12:31.797Z,3.83
2023-01-29T11:13:31.774Z,4.12
2023-01-29T11:14:31.984Z,4.54
2023-01-29T11:15:32.020Z,4.86
2023-01-29T11:16:31.775Z,4.77
2023-01-29T11:17:31.747Z,5.27
2023-01-29T11:18:31.753Z,5.38
2023-01-29T11:19:31.751Z,5.24
2023-01-29T11:20:31.724Z,5.31
2023-01-29T11:21:31.737Z,5.65
2023-01-29T11:22:31.709Z,5.82
2023-01-29T11:23:31.669Z,6.19
2023-01-29T11:24:32.453Z,6.43
2023-01-29T11:25:31.652Z,6.77
2023-01-29T11:26:31.627Z,7.30
2023-01-29T11:27:31.742Z,7.89
2023-01-29T11:28:31.818Z,7.93
2023-01-29T11:29:32.083Z,7.89
2023-01-29T11:30:31.718Z,8.05
2023-01-29T11:31:31.676Z,7.97
2023-01-29T11:32:31.579Z,7.86
2023-01-29T11:33:31.560Z,7.82
2023-01-29T11:34:31.558Z,7.24
2023-01-29T11:35:31.569Z,7.15
2023-01-29T11:36:31.521Z,7.52
2023-01-29T11:37:31.530Z,8.00
2023-01-29T11:38:31.493Z,8.00
2023-01-29T11:39:31.503Z,8.30
2023-01-29T11:40:31.478Z,8.04
2023-01-29T11:41:31.483Z,7.93
2023-01-29T11:42:31.461Z,8.02
2023-01-29T11:43:31.459Z,7.92
2023-01-29T11:44:31.437Z,7.77
2023-01-29T11:45:31.427Z,7.67
2023-01-29T11:46:31.456Z,7.34
2023-01-29T11:47:31.414Z,7.77
2023-01-29T11:48:31.375Z,7.60
2023-01-29T11:49:31.440Z,7.24
2023-01-29T11:50:31.377Z,7.10
2023-01-29T11:51:31.358Z,6.95
2023-01-29T11:52:31.349Z,7.06
2023-01-29T11:53:31.355Z,7.45
2023-01-29T11:54:31.322Z,7.82
2023-01-29T11:55:44.365Z,7.63
2023-01-29T11:56:32.410Z,7.72
2023-01-29T11:57:31.300Z,7.68
2023-01-29T11:58:31.277Z,7.57
2023-01-29T11:59:31.310Z,7.21
2023-01-29T12:00:31.258Z,6.89
2023-01-29T12:01:31.248Z,6.30
2023-01-29T12:02:31.256Z,5.58
2023-01-29T12:03:31.276Z,5.54
2023-01-29T12:04:31.222Z,5.71
2023-01-29T12:05:31.234Z,5.89
2023-01-29T12:06:31.193Z,6.15
2023-01-29T12:07:31.205Z,6.48
2023-01-29T12:08:31.179Z,6.64
2023-01-29T12:09:31.196Z,7.06
2023-01-29T12:10:31.157Z,7.23
2023-01-29T12:11:31.149Z,7.37
2023-01-29T12:12:31.126Z,7.30
2023-01-29T12:13:31.142Z,7.28
2023-01-29T12:14:31.124Z,7.05
2023-01-29T12:15:31.113Z,7.20
2023-01-29T12:16:31.185Z,7.13
2023-01-29T12:17:32.136Z,7.35
2023-01-29T12:18:31.084Z,7.31
2023-01-29T12:19:31.058Z,7.39
2023-01-29T12:20:31.083Z,7.13
2023-01-29T12:21:31.747Z,6.69
2023-01-29T12:22:31.041Z,6.17
2023-01-29T12:23:31.051Z,6.03
2023-01-29T12:24:30.998Z,6.31
2023-01-29T12:25:31.009Z,5.91
2023-01-29T12:26:30.997Z,5.65
2023-01-29T12:27:31.020Z,5.83
2023-01-29T12:28:30.959Z,6.15
2023-01-29T12:29:30.953Z,6.34
2023-01-29T12:30:30.977Z,6.40
2023-01-29T12:31:30.952Z,6.56
2023-01-29T12:32:31.719Z,6.70
2023-01-29T12:33:30.918Z,6.99
2023-01-29T12:34:30.895Z,7.42
2023-01-29T12:35:30.894Z,7.72
2023-01-29T12:36:30.864Z,7.71
2023-01-29T12:37:30.869Z,7.32
2023-01-29T12:38:30.854Z,7.48
2023-01-29T12:39:30.840Z,7.55
2023-01-29T12:40:30.841Z,6.85
2023-01-29T12:41:30.843Z,6.84
2023-01-29T12:42:30.803Z,6.54
2023-01-29T12:43:30.805Z,6.19
2023-01-29T12:44:30.839Z,6.00
2023-01-29T12:45:30.890Z,6.22
2023-01-29T12:46:31.580Z,6.52
2023-01-29T12:47:30.770Z,6.91
2023-01-29T12:48:30.753Z,7.21
2023-01-29T12:49:30.739Z,7.63
2023-01-29T12:50:30.845Z,7.40
2023-01-29T12:51:30.719Z,7.30
2023-01-29T12:52:30.700Z,7.52
2023-01-29T12:53:30.707Z,7.50
2023-01-29T12:54:30.699Z,7.20
2023-01-29T12:55:30.664Z,6.48
2023-01-29T12:56:31.621Z,6.27
2023-01-29T12:57:30.662Z,6.21
2023-01-29T12:58:30.633Z,6.21
2023-01-29T12:59:30.653Z,6.19
2023-01-29T13:00:31.421Z,6.04
2023-01-29T13:01:30.610Z,6.14
2023-01-29T13:02:30.591Z,5.76
2023-01-29T13:03:30.659Z,5.60
2023-01-29T13:04:30.574Z,5.33
2023-01-29T13:05:30.623Z,5.18
2023-01-29T13:06:30.548Z,5.39
2023-01-29T13:07:30.537Z,5.51
2023-01-29T13:08:30.625Z,5.67
2023-01-29T13:09:30.516Z,5.96
2023-01-29T13:10:30.496Z,6.04
2023-01-29T13:11:30.494Z,5.94
2023-01-29T13:12:30.506Z,5.90
2023-01-29T13:13:30.477Z,6.27
2023-01-29T13:14:30.448Z,6.56
2023-01-29T13:15:30.471Z,6.64
2023-01-29T13:16:30.571Z,6.34
2023-01-29T13:17:30.484Z,6.49
2023-01-29T13:18:30.426Z,6.17
2023-01-29T13:19:30.466Z,5.60
2023-01-29T13:20:30.669Z,5.40
2023-01-29T13:21:30.391Z,5.33
2023-01-29T13:22:30.390Z,5.30
2023-01-29T13:23:30.375Z,5.18
2023-01-29T13:24:30.359Z,5.10
2023-01-29T13:25:30.341Z,5.17
2023-01-29T13:26:31.293Z,5.21
2023-01-29T13:27:30.322Z,5.03
2023-01-29T13:28:30.313Z,4.77
2023-01-29T13:29:30.317Z,4.62
2023-01-29T13:30:30.358Z,4.67
2023-01-29T13:31:30.350Z,4.89